Bicknell, Indiana
Current Conditions -  °F | °C
As of 2:35 PM on Sunday 21 Dec 2014 (Local Time) from KDCY Reporting Station
Clear Clear  
Wind Chill:   Ceiling: Unl
Heat Index:   Visibility: 10mi
Dew Point: -2°   Wind: 3mph
Humidity: 63%   Direction: 100°E
Pressure: 30.14"   Gusts: NA
Location:  38.77°N, 87.31°W
Report Text: KDCY 212035Z AUTO 10003KT 10SM CLR 05/M02 A3014 RMK AO2 T00451021
Loading
Personal Weather Stations






























Interactive Weather Map New forecast layout! Learn more

10-Day Weather Forecast

Advertisements
Track Severe Weather on mobile